Time;durP1;ratioP1;P1;durP2;ratioP2;P2;SDS_P1;SDS_P2;PMS_P1;PMS_P2;Temp;Humidity;BMP_temperature;BMP_pressure;BME280_temperature;BME280_humidity;BME280_pressure;Samples;Min_cycle;Max_cycle;Signal;HPM_P1;HPM_P2
2022/08/03 00:00:59;;;;;;;2.40;2.20;;;20.90;52.50;;;;;;625473;230;26562;-65
2022/08/03 00:03:27;;;;;;;2.92;2.20;;;20.90;52.10;;;;;;625424;230;26609;-65
2022/08/03 00:05:55;;;;;;;2.62;2.40;;;20.90;52.70;;;;;;625495;230;26550;-65
2022/08/03 00:08:22;;;;;;;5.37;3.10;;;20.90;52.20;;;;;;625455;230;26589;-65
2022/08/03 00:10:50;;;;;;;3.20;2.33;;;20.90;52.50;;;;;;625514;230;26550;-65
2022/08/03 00:13:18;;;;;;;4.25;2.65;;;20.90;52.50;;;;;;625428;229;26553;-65
2022/08/03 00:15:45;;;;;;;2.95;2.28;;;20.90;52.80;;;;;;625511;230;26646;-65
2022/08/03 00:18:12;;;;;;;3.47;2.53;;;20.80;52.70;;;;;;625552;229;26772;-65
2022/08/03 00:20:39;;;;;;;4.15;2.65;;;20.80;52.30;;;;;;625432;230;26597;-65
2022/08/03 00:23:07;;;;;;;4.32;2.50;;;20.80;52.40;;;;;;625458;224;26816;-65
2022/08/03 00:25:34;;;;;;;2.78;2.53;;;20.80;52.70;;;;;;625518;230;26571;-65
2022/08/03 00:28:02;;;;;;;2.78;2.58;;;20.80;52.70;;;;;;625467;224;26795;-65
2022/08/03 00:30:30;;;;;;;2.87;2.45;;;20.80;52.70;;;;;;625779;228;26629;-66
2022/08/03 00:32:57;;;;;;;3.30;2.47;;;20.90;52.80;;;;;;626942;223;26558;-65
2022/08/03 00:35:24;;;;;;;2.95;2.40;;;20.90;52.70;;;;;;626517;229;26789;-64
2022/08/03 00:37:51;;;;;;;3.45;2.60;;;20.90;52.80;;;;;;626462;223;27146;-64
2022/08/03 00:40:18;;;;;;;2.75;2.33;;;21.00;52.30;;;;;;626300;224;26528;-64
2022/08/03 00:42:46;;;;;;;3.70;2.65;;;21.00;52.70;;;;;;626047;230;26838;-65
2022/08/03 00:45:14;;;;;;;2.65;2.40;;;21.00;52.80;;;;;;626098;230;26589;-64
2022/08/03 00:47:41;;;;;;;4.37;2.70;;;21.00;52.80;;;;;;626117;230;26585;-64
2022/08/03 00:50:09;;;;;;;3.37;2.60;;;21.00;52.80;;;;;;625757;230;26546;-64
2022/08/03 00:52:37;;;;;;;2.80;2.55;;;20.90;52.80;;;;;;625749;230;26591;-64
2022/08/03 00:55:05;;;;;;;5.43;2.78;;;20.90;52.80;;;;;;625767;230;26542;-64
2022/08/03 00:57:32;;;;;;;2.65;2.45;;;20.90;53.10;;;;;;626225;230;26517;-64
2022/08/03 00:59:59;;;;;;;3.75;2.65;;;20.90;53.30;;;;;;626233;224;26772;-64
2022/08/03 01:02:27;;;;;;;2.83;2.37;;;20.80;53.00;;;;;;626070;224;26542;-65
2022/08/03 01:04:54;;;;;;;2.65;2.20;;;20.70;53.20;;;;;;625546;230;27368;-65
2022/08/03 01:07:32;;;;;;;3.00;2.72;;;20.70;53.50;;;;;;625499;230;27337;-65
2022/08/03 01:10:06;;;;;;;3.95;2.75;;;20.70;53.50;;;;;;624802;230;26555;-65
2022/08/03 01:12:35;;;;;;;3.35;2.40;;;20.70;53.10;;;;;;625031;230;26594;-65
2022/08/03 01:15:09;;;;;;;2.55;2.35;;;20.60;53.60;;;;;;625320;229;26600;-65
2022/08/03 01:17:40;;;;;;;3.90;2.58;;;20.50;53.70;;;;;;625244;230;26561;-65
2022/08/03 01:20:07;;;;;;;2.75;1.85;;;20.50;53.70;;;;;;624971;230;26601;-65
2022/08/03 01:22:51;;;;;;;2.60;2.40;;;20.50;53.50;;;;;;625374;225;26570;-65
2022/08/03 01:25:39;;;;;;;2.40;2.17;;;20.50;54.00;;;;;;621421;230;26676;-65
2022/08/03 01:28:17;;;;;;;3.17;2.53;;;20.50;53.90;;;;;;622316;224;26792;-65
2022/08/03 01:30:45;;;;;;;2.85;2.62;;;20.50;53.90;;;;;;624852;224;26554;-65
2022/08/03 01:33:16;;;;;;;2.65;2.40;;;20.60;54.10;;;;;;625510;230;26587;-65
2022/08/03 01:35:44;;;;;;;3.28;2.22;;;20.60;53.70;;;;;;625422;227;26618;-65
2022/08/03 01:38:11;;;;;;;3.40;1.90;;;20.60;53.70;;;;;;625278;230;26828;-65
2022/08/03 01:40:39;;;;;;;2.53;2.30;;;20.60;53.50;;;;;;625323;230;26556;-65
2022/08/03 01:43:06;;;;;;;2.12;1.75;;;20.70;53.40;;;;;;626468;228;26843;-65
2022/08/03 01:45:34;;;;;;;2.62;2.42;;;20.70;53.30;;;;;;627190;229;26562;-65
2022/08/03 01:48:02;;;;;;;2.40;2.20;;;20.70;53.10;;;;;;626827;229;26522;-65
2022/08/03 01:50:29;;;;;;;2.60;2.40;;;20.70;53.10;;;;;;626852;230;26507;-65
2022/08/03 01:52:56;;;;;;;2.40;2.20;;;20.70;53.20;;;;;;626475;228;26819;-65
2022/08/03 01:55:23;;;;;;;3.47;2.30;;;20.70;53.20;;;;;;626455;230;26563;-65
2022/08/03 01:57:51;;;;;;;2.55;2.30;;;20.70;53.30;;;;;;626509;230;26779;-65
2022/08/03 02:00:18;;;;;;;2.97;2.20;;;20.70;53.70;;;;;;626451;230;26614;-65
2022/08/03 02:02:45;;;;;;;3.85;2.15;;;20.70;53.50;;;;;;625894;230;26788;-65
2022/08/03 02:05:12;;;;;;;2.50;2.30;;;20.80;53.70;;;;;;625673;224;26553;-65
2022/08/03 02:07:39;;;;;;;2.35;2.15;;;20.80;53.60;;;;;;625651;224;26701;-65
2022/08/03 02:10:08;;;;;;;3.12;2.72;;;20.80;53.30;;;;;;625682;230;26788;-65
2022/08/03 02:12:35;;;;;;;2.35;2.25;;;20.80;53.50;;;;;;625694;224;26592;-65
2022/08/03 02:15:04;;;;;;;2.83;1.92;;;20.90;53.20;;;;;;625714;230;26549;-65
2022/08/03 02:17:31;;;;;;;1.77;1.67;;;20.90;53.20;;;;;;625796;223;26540;-65
2022/08/03 02:19:58;;;;;;;2.08;1.87;;;20.90;53.00;;;;;;625447;230;26949;-65
2022/08/03 02:22:25;;;;;;;3.55;2.30;;;20.90;52.60;;;;;;625453;230;26618;-65
2022/08/03 02:24:52;;;;;;;3.55;1.95;;;20.90;52.60;;;;;;625463;228;26855;-65
2022/08/03 02:27:20;;;;;;;2.62;2.42;;;21.00;52.40;;;;;;625549;230;26551;-65
2022/08/03 02:29:48;;;;;;;2.35;1.90;;;21.00;52.40;;;;;;625334;228;26501;-65
2022/08/03 02:32:15;;;;;;;2.50;2.30;;;21.00;52.50;;;;;;625270;224;26625;-65
2022/08/03 02:34:43;;;;;;;3.97;2.53;;;21.00;52.20;;;;;;625068;229;26579;-65
2022/08/03 02:37:11;;;;;;;2.40;2.20;;;21.00;51.90;;;;;;625384;226;26740;-64
2022/08/03 02:39:39;;;;;;;2.42;2.22;;;21.00;51.90;;;;;;625481;224;26787;-64
2022/08/03 02:42:06;;;;;;;2.37;2.17;;;21.00;51.80;;;;;;625488;230;26570;-65
2022/08/03 02:44:34;;;;;;;2.42;2.22;;;21.00;52.00;;;;;;625371;224;26656;-65
2022/08/03 02:47:02;;;;;;;2.45;2.10;;;21.00;52.10;;;;;;625452;230;26654;-65
2022/08/03 02:49:30;;;;;;;2.80;2.55;;;20.90;51.80;;;;;;625439;230;26598;-65
2022/08/03 02:51:58;;;;;;;3.00;2.10;;;21.00;51.90;;;;;;625481;230;26673;-65
2022/08/03 02:54:26;;;;;;;2.72;2.00;;;21.00;51.80;;;;;;626909;224;26630;-65
2022/08/03 02:56:54;;;;;;;1.87;1.77;;;21.00;51.70;;;;;;627249;229;26562;-65
2022/08/03 02:59:23;;;;;;;2.12;1.92;;;20.90;52.00;;;;;;626926;229;26516;-66
2022/08/03 03:01:52;;;;;;;2.22;2.10;;;20.90;51.90;;;;;;626812;230;26492;-65
2022/08/03 03:04:19;;;;;;;3.22;2.00;;;20.90;52.20;;;;;;626461;230;26601;-65
2022/08/03 03:06:46;;;;;;;2.62;2.22;;;20.90;52.20;;;;;;626238;230;26598;-64
2022/08/03 03:09:14;;;;;;;2.20;1.87;;;20.90;52.10;;;;;;626082;223;26615;-64
2022/08/03 03:11:41;;;;;;;2.50;2.03;;;20.90;51.90;;;;;;625989;230;26587;-65
2022/08/03 03:14:09;;;;;;;2.12;2.03;;;20.90;51.90;;;;;;625800;224;26807;-65
2022/08/03 03:16:36;;;;;;;3.08;2.10;;;20.90;52.10;;;;;;625707;230;26569;-64
2022/08/03 03:19:03;;;;;;;4.43;2.40;;;20.90;52.50;;;;;;625705;230;26571;-65
2022/08/03 03:21:30;;;;;;;3.17;2.20;;;20.80;51.70;;;;;;625754;230;26566;-65
2022/08/03 03:23:57;;;;;;;3.70;1.95;;;20.80;51.70;;;;;;625788;230;26817;-65
2022/08/03 03:26:25;;;;;;;2.45;2.20;;;20.80;52.00;;;;;;625788;230;26518;-65
2022/08/03 03:28:52;;;;;;;5.05;2.50;;;20.80;52.00;;;;;;625794;230;26859;-65
2022/08/03 03:31:19;;;;;;;2.60;2.40;;;20.80;52.30;;;;;;625546;230;26541;-65
2022/08/03 03:33:46;;;;;;;2.95;2.45;;;20.70;52.80;;;;;;625471;230;26869;-64
2022/08/03 03:36:13;;;;;;;3.05;2.12;;;20.70;52.90;;;;;;625503;230;26592;-65
2022/08/03 03:38:41;;;;;;;2.17;2.03;;;20.60;52.70;;;;;;625353;224;26855;-64
2022/08/03 03:41:08;;;;;;;2.25;2.05;;;20.50;52.80;;;;;;625382;230;26649;-64
2022/08/03 03:43:36;;;;;;;1.85;1.75;;;20.40;53.20;;;;;;625399;224;27060;-64
2022/08/03 03:46:05;;;;;;;2.55;2.33;;;20.40;53.20;;;;;;625435;229;26784;-64
2022/08/03 03:48:32;;;;;;;2.20;2.00;;;20.30;53.00;;;;;;625500;224;26557;-64
2022/08/03 03:50:59;;;;;;;2.35;2.03;;;20.30;53.20;;;;;;625465;230;26824;-65
2022/08/03 03:53:26;;;;;;;2.20;2.00;;;20.30;53.80;;;;;;625470;230;27256;-64
2022/08/03 03:55:54;;;;;;;2.40;1.85;;;20.20;53.80;;;;;;625467;230;26598;-64
2022/08/03 03:58:22;;;;;;;3.17;2.05;;;20.10;53.70;;;;;;625515;230;26600;-64
2022/08/03 04:00:49;;;;;;;2.20;2.10;;;20.10;53.60;;;;;;625509;230;26596;-65
2022/08/03 04:03:16;;;;;;;2.20;2.00;;;20.10;53.70;;;;;;625453;224;26577;-65
2022/08/03 04:11:19;;;;;;;2.78;2.35;;;20.20;53.60;;;;;;626516;229;26836;-65
2022/08/03 04:13:54;;;;;;;2.42;2.22;;;20.20;53.60;;;;;;625474;230;26544;-64
2022/08/03 04:16:22;;;;;;;2.53;2.08;;;20.30;53.50;;;;;;626122;224;26560;-64
2022/08/03 04:18:50;;;;;;;2.10;2.00;;;20.30;53.50;;;;;;625889;224;26588;-64
2022/08/03 04:21:17;;;;;;;2.83;2.22;;;20.40;53.20;;;;;;626451;228;26521;-65
2022/08/03 04:23:45;;;;;;;2.20;1.95;;;20.40;53.80;;;;;;626381;230;26538;-65
2022/08/03 04:26:12;;;;;;;2.65;2.40;;;20.40;53.40;;;;;;626161;230;26517;-65
2022/08/03 04:28:39;;;;;;;2.22;2.00;;;20.30;53.60;;;;;;626117;230;26751;-65
2022/08/03 04:31:06;;;;;;;2.70;2.50;;;20.30;53.30;;;;;;626182;224;26519;-65
2022/08/03 04:33:33;;;;;;;2.78;2.55;;;20.30;53.10;;;;;;626127;228;26787;-65
2022/08/03 04:36:01;;;;;;;2.50;2.30;;;20.40;53.40;;;;;;626223;224;26514;-65
2022/08/03 04:38:29;;;;;;;3.20;2.83;;;20.40;53.50;;;;;;625899;229;26772;-65
2022/08/03 04:40:57;;;;;;;3.08;2.45;;;20.40;53.40;;;;;;625749;224;26557;-65
2022/08/03 04:43:25;;;;;;;2.60;2.42;;;20.40;54.00;;;;;;625474;230;26641;-65
2022/08/03 04:45:52;;;;;;;2.62;2.42;;;20.40;54.00;;;;;;625368;224;26600;-65
2022/08/03 04:48:19;;;;;;;3.50;3.05;;;20.50;53.60;;;;;;625447;230;26537;-65
2022/08/03 04:50:46;;;;;;;3.03;2.50;;;20.50;53.50;;;;;;625511;230;26775;-65
2022/08/03 04:53:13;;;;;;;3.25;2.20;;;20.50;53.10;;;;;;625410;230;26529;-65
2022/08/03 04:55:41;;;;;;;2.67;2.47;;;20.60;52.50;;;;;;625572;230;27030;-67
2022/08/03 04:58:08;;;;;;;2.97;2.78;;;20.70;52.80;;;;;;625569;230;26582;-67
2022/08/03 05:00:36;;;;;;;2.80;2.35;;;20.80;52.60;;;;;;625547;229;26592;-67
2022/08/03 05:03:04;;;;;;;3.37;2.30;;;20.90;51.90;;;;;;625547;230;26566;-67
2022/08/03 05:05:31;;;;;;;2.62;2.42;;;20.90;51.90;;;;;;625545;230;26534;-67
2022/08/03 05:07:58;;;;;;;2.42;2.28;;;20.90;52.80;;;;;;625567;230;26614;-67
2022/08/03 05:10:25;;;;;;;2.72;2.20;;;21.00;51.80;;;;;;625513;230;26802;-67
2022/08/03 05:12:53;;;;;;;2.50;2.30;;;21.10;51.20;;;;;;625571;230;26616;-67
2022/08/03 05:15:20;;;;;;;3.08;2.78;;;21.20;51.40;;;;;;625620;229;26736;-67
2022/08/03 05:17:47;;;;;;;3.00;2.80;;;21.30;51.90;;;;;;626720;227;26578;-67
2022/08/03 05:20:14;;;;;;;2.40;2.20;;;21.40;51.00;;;;;;626766;229;26865;-67
2022/08/03 05:22:41;;;;;;;2.67;2.47;;;21.40;51.30;;;;;;626637;229;26572;-67
2022/08/03 05:25:09;;;;;;;2.80;2.45;;;21.50;51.20;;;;;;626581;230;26778;-67
2022/08/03 05:27:36;;;;;;;2.60;2.40;;;21.60;51.50;;;;;;626247;230;26590;-67
2022/08/03 05:30:04;;;;;;;2.60;2.40;;;21.70;50.70;;;;;;626273;230;26930;-67
2022/08/03 05:32:32;;;;;;;3.78;2.60;;;21.80;50.60;;;;;;626286;230;26592;-67
2022/08/03 05:35:00;;;;;;;4.30;2.50;;;22.00;50.40;;;;;;626211;230;26609;-67
2022/08/03 05:37:28;;;;;;;2.60;2.28;;;22.10;50.60;;;;;;625926;230;26557;-67
2022/08/03 05:39:55;;;;;;;3.70;2.25;;;22.00;50.50;;;;;;625935;230;26540;-67
2022/08/03 05:42:23;;;;;;;5.30;2.67;;;22.20;50.90;;;;;;626621;222;26534;-68
2022/08/03 05:44:51;;;;;;;4.40;2.72;;;22.30;49.30;;;;;;635440;225;26763;-67
2022/08/03 05:47:18;;;;;;;3.33;2.67;;;22.30;49.70;;;;;;635792;225;26826;-67
2022/08/03 05:49:45;;;;;;;5.28;2.72;;;22.50;50.10;;;;;;635835;226;26527;-68
2022/08/03 05:52:12;;;;;;;2.80;2.50;;;22.60;50.00;;;;;;635830;225;26832;-68
2022/08/03 05:54:39;;;;;;;4.20;2.92;;;22.70;49.20;;;;;;635480;226;26600;-68
2022/08/03 05:57:07;;;;;;;2.62;2.40;;;22.80;50.30;;;;;;635532;226;26764;-68
2022/08/03 05:59:34;;;;;;;5.65;2.67;;;22.90;49.00;;;;;;635517;226;26778;-69
2022/08/03 06:02:01;;;;;;;3.08;2.47;;;23.00;48.40;;;;;;635485;222;26529;-69
2022/08/03 06:04:28;;;;;;;2.35;2.15;;;23.10;48.40;;;;;;635476;226;26787;-69
2022/08/03 06:06:56;;;;;;;3.72;2.67;;;23.20;48.00;;;;;;635486;226;26527;-68
2022/08/03 06:09:24;;;;;;;5.62;2.20;;;23.50;48.70;;;;;;635427;226;26763;-68
2022/08/03 06:11:52;;;;;;;2.62;2.42;;;23.60;47.60;;;;;;632391;226;26525;-69
2022/08/03 06:14:20;;;;;;;5.85;2.78;;;23.70;47.10;;;;;;624657;230;26612;-68
2022/08/03 06:16:48;;;;;;;6.65;2.80;;;23.80;48.20;;;;;;624535;230;26557;-69
2022/08/03 06:19:16;;;;;;;5.62;2.28;;;24.00;47.00;;;;;;624673;230;26558;-68
2022/08/03 06:21:43;;;;;;;2.87;2.55;;;24.00;47.10;;;;;;624685;230;26577;-68
2022/08/03 06:24:11;;;;;;;5.32;2.85;;;24.10;46.70;;;;;;624751;230;26611;-68
2022/08/03 06:26:38;;;;;;;3.80;2.97;;;24.20;46.30;;;;;;624731;230;26797;-69
2022/08/03 06:29:05;;;;;;;2.97;2.37;;;24.40;47.20;;;;;;625640;228;26581;-68
2022/08/03 06:31:33;;;;;;;5.75;2.60;;;24.60;47.40;;;;;;626037;230;27360;-69
2022/08/03 06:34:01;;;;;;;4.10;2.60;;;24.60;47.40;;;;;;630790;225;26798;-69
2022/08/03 06:36:30;;;;;;;6.45;2.80;;;24.80;45.70;;;;;;626962;225;26595;-68
2022/08/03 06:38:58;;;;;;;3.22;2.28;;;24.90;45.90;;;;;;631279;226;26584;-68
2022/08/03 06:41:25;;;;;;;2.60;2.30;;;24.90;45.90;;;;;;626682;225;26779;-68
2022/08/03 06:43:53;;;;;;;3.25;2.25;;;25.10;45.00;;;;;;634074;226;26609;-68
2022/08/03 06:46:21;;;;;;;6.57;2.30;;;25.10;45.00;;;;;;634033;225;26611;-68
2022/08/03 06:48:48;;;;;;;2.03;1.92;;;25.10;45.00;;;;;;624983;230;26534;-68
2022/08/03 06:51:15;;;;;;;1.70;1.60;;;25.20;44.60;;;;;;625427;230;26823;-69
2022/08/03 06:53:43;;;;;;;2.22;1.67;;;25.30;44.30;;;;;;634197;226;26574;-68
2022/08/03 06:56:10;;;;;;;5.93;2.12;;;25.50;43.80;;;;;;634553;226;26792;-68
2022/08/03 06:58:37;;;;;;;2.65;2.00;;;25.60;43.60;;;;;;625464;229;26530;-68
2022/08/03 07:01:04;;;;;;;2.20;2.00;;;25.70;43.70;;;;;;624918;230;26513;-68
2022/08/03 07:03:32;;;;;;;2.28;2.00;;;25.90;43.40;;;;;;625732;226;26612;-68
2022/08/03 07:06:00;;;;;;;3.37;2.20;;;26.00;43.60;;;;;;633136;225;26573;-68
2022/08/03 07:08:28;;;;;;;4.65;1.90;;;26.00;43.10;;;;;;624877;230;26614;-68
2022/08/03 07:10:56;;;;;;;4.75;2.50;;;26.10;44.00;;;;;;625158;230;26606;-68
2022/08/03 07:13:24;;;;;;;3.95;2.28;;;26.20;44.90;;;;;;633043;225;26548;-67
2022/08/03 07:15:51;;;;;;;2.05;1.40;;;26.20;44.50;;;;;;627804;225;26590;-67
2022/08/03 07:18:20;;;;;;;3.00;2.20;;;26.50;43.40;;;;;;627825;225;26565;-67
2022/08/03 07:20:48;;;;;;;3.67;2.15;;;26.50;43.50;;;;;;633087;225;26505;-68
2022/08/03 07:23:15;;;;;;;1.62;1.52;;;26.50;43.60;;;;;;630742;222;26609;-67
2022/08/03 07:25:42;;;;;;;4.65;2.12;;;26.60;43.30;;;;;;627264;226;26585;-67
2022/08/03 07:28:10;;;;;;;3.72;2.05;;;26.70;43.20;;;;;;624714;226;26787;-66
2022/08/03 07:30:37;;;;;;;1.27;1.27;;;26.70;43.10;;;;;;624628;230;26585;-66
2022/08/03 07:33:04;;;;;;;3.87;2.40;;;26.80;43.50;;;;;;625161;230;26816;-67
2022/08/03 07:35:31;;;;;;;2.25;1.73;;;26.90;42.80;;;;;;624989;228;26573;-67
2022/08/03 07:37:58;;;;;;;1.27;1.17;;;27.00;42.70;;;;;;628798;225;26816;-67
2022/08/03 07:40:25;;;;;;;2.45;2.20;;;27.10;42.80;;;;;;631366;224;26574;-67
2022/08/03 07:42:53;;;;;;;1.50;1.40;;;27.10;42.70;;;;;;630472;225;27275;-67
2022/08/03 07:45:22;;;;;;;2.25;1.85;;;27.10;42.60;;;;;;629587;226;26574;-67
2022/08/03 07:47:47;;;;;;;1.83;1.55;;;27.30;43.20;;;;;;629069;225;26819;-66
2022/08/03 07:50:15;;;;;;;1.40;1.30;;;27.40;42.80;;;;;;627017;226;26561;-67
2022/08/03 07:52:47;;;;;;;1.45;1.45;;;27.50;42.20;;;;;;626183;227;26549;-67
2022/08/03 07:55:15;;;;;;;1.98;1.67;;;27.40;42.50;;;;;;630899;226;26537;-68
2022/08/03 07:57:43;;;;;;;12.20;3.45;;;27.50;42.50;;;;;;625700;230;26545;-66
2022/08/03 08:00:13;;;;;;;27.35;6.75;;;27.70;42.50;;;;;;632655;226;26554;-67
2022/08/03 08:02:40;;;;;;;36.80;7.93;;;27.60;42.50;;;;;;626796;226;26559;-68
2022/08/03 08:05:09;;;;;;;26.58;7.03;;;27.70;43.20;;;;;;627365;227;26797;-67
2022/08/03 08:07:36;;;;;;;84.75;17.65;;;27.70;42.70;;;;;;635429;225;26561;-68
2022/08/03 08:10:04;;;;;;;63.45;13.48;;;27.70;41.80;;;;;;638811;225;26544;-68
2022/08/03 08:12:32;;;;;;;22.00;4.82;;;27.70;41.80;;;;;;630518;225;26528;-67
2022/08/03 08:14:59;;;;;;;28.20;7.45;;;27.80;42.30;;;;;;627656;226;26793;-68
2022/08/03 08:17:26;;;;;;;9.63;3.40;;;27.90;42.50;;;;;;631752;225;26595;-67
2022/08/03 08:19:54;;;;;;;4.15;1.87;;;28.10;41.30;;;;;;632715;225;27205;-68
2022/08/03 08:22:21;;;;;;;7.00;2.12;;;28.10;41.30;;;;;;628592;225;26770;-67
2022/08/03 08:24:48;;;;;;;4.60;1.90;;;28.10;40.90;;;;;;631132;227;26526;-68
2022/08/03 08:27:16;;;;;;;2.53;2.00;;;28.10;41.30;;;;;;624676;230;26808;-68
2022/08/03 08:29:43;;;;;;;5.05;2.03;;;28.20;40.60;;;;;;625126;230;26576;-68
2022/08/03 08:32:12;;;;;;;5.37;2.22;;;28.20;40.40;;;;;;624938;230;26847;-67
2022/08/03 08:34:38;;;;;;;3.87;2.17;;;28.20;40.50;;;;;;633563;226;26549;-67
2022/08/03 08:37:06;;;;;;;4.25;1.90;;;28.20;40.50;;;;;;627797;226;26556;-67
2022/08/03 08:39:34;;;;;;;2.78;1.70;;;28.30;40.70;;;;;;635471;226;26529;-67
2022/08/03 08:42:02;;;;;;;2.65;1.70;;;28.30;41.10;;;;;;634816;226;26557;-67
2022/08/03 08:44:30;;;;;;;4.18;2.05;;;28.40;40.50;;;;;;626688;226;26609;-66
2022/08/03 08:46:58;;;;;;;3.85;2.12;;;28.40;39.50;;;;;;634148;226;26542;-67
2022/08/03 08:49:26;;;;;;;3.35;2.33;;;28.40;40.10;;;;;;624964;230;26597;-67
2022/08/03 08:51:53;;;;;;;3.55;1.90;;;28.40;39.80;;;;;;625860;228;26596;-67
2022/08/03 08:54:21;;;;;;;3.95;1.73;;;28.50;40.00;;;;;;626293;229;26559;-67
2022/08/03 08:56:47;;;;;;;3.40;1.70;;;28.50;39.80;;;;;;627709;226;26782;-67
2022/08/03 08:59:14;;;;;;;3.83;1.50;;;28.50;39.90;;;;;;633379;225;26584;-67
2022/08/03 09:01:42;;;;;;;2.78;1.50;;;28.50;39.30;;;;;;632464;225;26828;-67
2022/08/03 09:04:09;;;;;;;2.35;1.42;;;28.50;39.90;;;;;;630192;225;26566;-66
2022/08/03 09:06:36;;;;;;;1.52;1.42;;;28.50;39.10;;;;;;631853;227;26771;-66
2022/08/03 09:09:03;;;;;;;1.80;1.70;;;28.60;39.10;;;;;;627198;227;26577;-66
2022/08/03 09:11:30;;;;;;;2.70;1.45;;;28.60;39.40;;;;;;624611;230;26831;-67
2022/08/03 09:13:58;;;;;;;2.62;1.80;;;28.70;39.50;;;;;;624575;230;26552;-67
2022/08/03 09:16:25;;;;;;;2.72;1.77;;;28.70;40.50;;;;;;625000;230;26588;-67
2022/08/03 09:18:52;;;;;;;2.10;1.87;;;28.80;40.10;;;;;;624960;230;26560;-67
2022/08/03 09:21:24;;;;;;;1.85;1.75;;;28.80;39.80;;;;;;624755;230;26785;-67
2022/08/03 09:23:53;;;;;;;3.28;2.10;;;28.90;39.60;;;;;;624976;230;26572;-67
2022/08/03 09:26:23;;;;;;;4.28;1.90;;;28.90;40.10;;;;;;625020;230;26533;-67
2022/08/03 09:28:54;;;;;;;3.03;1.77;;;28.90;40.00;;;;;;624713;230;26606;-67
2022/08/03 09:31:30;;;;;;;1.60;1.50;;;29.00;39.80;;;;;;624659;230;26853;-66
2022/08/03 09:33:59;;;;;;;2.20;1.90;;;29.00;40.00;;;;;;624683;230;26622;-65
2022/08/03 09:36:35;;;;;;;3.62;1.62;;;28.90;40.40;;;;;;624607;230;26578;-65
2022/08/03 09:39:04;;;;;;;3.80;1.87;;;29.00;40.00;;;;;;625259;225;26881;-68
2022/08/03 09:41:30;;;;;;;3.35;2.00;;;29.00;39.90;;;;;;625280;227;26557;-68
2022/08/03 09:43:58;;;;;;;1.95;1.80;;;29.10;39.30;;;;;;638107;225;26539;-68
2022/08/03 09:46:30;;;;;;;1.95;1.70;;;29.10;38.60;;;;;;630784;226;26601;-68
2022/08/03 09:48:53;;;;;;;2.25;1.70;;;29.10;38.60;;;;;;628546;227;26602;-68
2022/08/03 09:51:20;;;;;;;1.30;1.20;;;29.10;38.80;;;;;;633920;226;26580;-68
2022/08/03 09:53:47;;;;;;;1.98;1.77;;;29.20;38.70;;;;;;625412;226;26829;-68
2022/08/03 09:56:14;;;;;;;3.67;1.98;;;29.30;39.00;;;;;;631369;226;26595;-68
2022/08/03 09:58:45;;;;;;;3.42;1.60;;;29.30;39.30;;;;;;626749;227;26774;-68
2022/08/03 10:01:12;;;;;;;4.03;1.80;;;29.20;38.40;;;;;;624515;230;26533;-68
2022/08/03 10:03:39;;;;;;;3.90;1.33;;;29.20;38.40;;;;;;629237;224;26836;-67
2022/08/03 10:06:21;;;;;;;2.30;1.58;;;29.30;39.30;;;;;;630167;226;26570;-68
2022/08/03 10:08:46;;;;;;;2.45;1.30;;;29.30;38.90;;;;;;626598;226;26765;-68
2022/08/03 10:11:13;;;;;;;2.37;1.50;;;29.40;38.90;;;;;;636894;225;26563;-68
2022/08/03 10:13:41;;;;;;;1.70;1.60;;;29.40;39.70;;;;;;631439;225;26586;-68
2022/08/03 10:16:09;;;;;;;2.87;1.50;;;29.40;38.10;;;;;;630784;225;26791;-68
2022/08/03 10:18:37;;;;;;;1.20;1.20;;;29.50;38.00;;;;;;635467;226;26881;-68
2022/08/03 10:21:04;;;;;;;1.48;1.37;;;29.40;37.90;;;;;;626985;225;27319;-69
2022/08/03 10:23:34;;;;;;;1.20;1.20;;;29.60;37.90;;;;;;634206;227;26559;-68
2022/08/03 10:26:03;;;;;;;4.53;1.58;;;29.60;38.20;;;;;;633777;227;26610;-68
2022/08/03 10:28:35;;;;;;;1.50;1.40;;;29.60;38.10;;;;;;627638;226;26548;-68
2022/08/03 10:31:02;;;;;;;1.87;1.40;;;29.60;38.10;;;;;;630643;228;26819;-68
2022/08/03 10:33:29;;;;;;;3.40;1.60;;;29.60;38.70;;;;;;625111;230;26557;-67
2022/08/03 10:35:56;;;;;;;2.53;1.70;;;29.60;38.50;;;;;;627695;227;26740;-67
2022/08/03 10:38:23;;;;;;;1.80;1.55;;;29.60;38.40;;;;;;625922;228;26544;-67
2022/08/03 10:40:50;;;;;;;1.75;1.35;;;29.70;38.80;;;;;;631891;227;26794;-67
2022/08/03 10:43:20;;;;;;;1.60;1.40;;;29.80;37.70;;;;;;626224;228;26612;-68
2022/08/03 10:45:47;;;;;;;3.62;1.60;;;29.90;37.40;;;;;;626517;227;26590;-68
2022/08/03 10:48:14;;;;;;;1.20;1.20;;;30.00;37.40;;;;;;631261;226;26897;-68
2022/08/03 10:50:42;;;;;;;1.35;1.10;;;30.00;36.60;;;;;;627298;226;26614;-68
2022/08/03 10:53:10;;;;;;;1.10;1.10;;;30.10;36.80;;;;;;631099;227;26577;-68
2022/08/03 10:58:11;;;;;;;1.95;1.60;;;30.20;37.30;;;;;;609873;234;26555;-66
2022/08/03 11:00:45;;;;;;;1.27;1.17;;;30.40;37.20;;;;;;617765;232;26567;-66
2022/08/03 11:03:13;;;;;;;1.45;1.25;;;30.40;37.20;;;;;;632050;225;26797;-66
2022/08/03 11:05:41;;;;;;;1.08;1.02;;;30.60;36.80;;;;;;612977;233;26559;-66
2022/08/03 11:08:21;;;;;;;1.40;1.30;;;30.70;36.70;;;;;;613207;234;26577;-66
2022/08/03 11:10:48;;;;;;;1.40;1.30;;;30.70;36.70;;;;;;612767;234;26833;-66
2022/08/03 11:13:15;;;;;;;2.00;1.40;;;30.80;36.50;;;;;;612274;234;26656;-66
2022/08/03 11:15:42;;;;;;;1.70;1.60;;;30.90;36.70;;;;;;631502;224;26582;-66
2022/08/03 11:18:10;;;;;;;1.60;1.50;;;31.00;36.20;;;;;;630096;227;26586;-66
2022/08/03 11:20:59;;;;;;;1.83;1.50;;;31.10;36.10;;;;;;627315;225;26514;-66
2022/08/03 11:23:39;;;;;;;2.25;1.48;;;31.00;36.10;;;;;;634730;224;26837;-67
2022/08/03 11:26:09;;;;;;;5.15;1.58;;;31.10;36.60;;;;;;632233;226;26578;-65
2022/08/03 11:28:37;;;;;;;1.60;1.50;;;31.10;36.20;;;;;;637086;226;26857;-65
2022/08/03 11:31:15;;;;;;;1.83;1.73;;;31.20;35.80;;;;;;626766;226;26595;-65
2022/08/03 11:33:42;;;;;;;1.85;1.75;;;31.10;36.50;;;;;;631706;227;26603;-65
2022/08/03 11:36:11;;;;;;;1.55;1.45;;;31.20;36.20;;;;;;627319;227;26614;-65
2022/08/03 11:38:39;;;;;;;2.22;1.50;;;31.30;35.70;;;;;;634363;226;26543;-65
2022/08/03 11:41:06;;;;;;;2.12;1.40;;;31.30;35.50;;;;;;630896;225;26554;-65
2022/08/03 11:43:49;;;;;;;1.50;1.40;;;31.30;35.50;;;;;;621591;227;26586;-65
2022/08/03 11:46:16;;;;;;;4.05;1.30;;;31.30;36.20;;;;;;608930;235;26634;-65
2022/08/03 11:48:44;;;;;;;2.53;1.67;;;31.30;36.10;;;;;;613748;234;26631;-65
2022/08/03 11:51:21;;;;;;;1.50;1.40;;;31.40;36.50;;;;;;614452;232;26578;-65
2022/08/03 11:53:54;;;;;;;1.50;1.40;;;31.40;36.00;;;;;;614635;228;26628;-65
2022/08/03 11:56:21;;;;;;;1.30;1.27;;;31.40;35.40;;;;;;613051;234;26833;-65
2022/08/03 11:58:50;;;;;;;1.62;1.52;;;31.40;36.00;;;;;;634013;226;26552;-65
2022/08/03 12:01:16;;;;;;;1.35;1.30;;;31.40;35.80;;;;;;631843;227;26823;-65
2022/08/03 12:03:44;;;;;;;1.92;1.77;;;31.60;35.70;;;;;;627459;228;26644;-66
2022/08/03 12:06:12;;;;;;;3.05;1.83;;;31.60;35.60;;;;;;627287;222;26561;-66
2022/08/03 12:08:39;;;;;;;1.73;1.62;;;31.60;35.40;;;;;;633316;226;27148;-65
2022/08/03 12:11:07;;;;;;;2.25;2.03;;;31.70;35.50;;;;;;626527;226;26611;-65
2022/08/03 12:13:37;;;;;;;2.00;1.90;;;31.80;35.30;;;;;;629588;227;26593;-65
2022/08/03 12:16:04;;;;;;;2.60;1.60;;;31.80;35.30;;;;;;630935;226;26549;-66
2022/08/03 12:18:31;;;;;;;1.90;1.80;;;31.90;36.00;;;;;;635807;226;26556;-65
2022/08/03 12:21:05;;;;;;;2.25;1.95;;;32.00;36.40;;;;;;627168;226;26808;-66
2022/08/03 12:23:32;;;;;;;1.80;1.48;;;32.10;35.90;;;;;;634602;225;26800;-65
2022/08/03 12:26:01;;;;;;;1.33;1.20;;;32.20;35.30;;;;;;631949;225;26512;-65
2022/08/03 12:28:29;;;;;;;1.00;1.00;;;32.80;34.60;;;;;;634734;223;26596;-65
2022/08/03 12:30:57;;;;;;;1.20;1.20;;;32.90;34.00;;;;;;627077;225;26502;-65
2022/08/03 12:33:25;;;;;;;1.37;1.27;;;33.10;34.20;;;;;;629789;225;26584;-66
2022/08/03 12:36:03;;;;;;;3.47;1.50;;;33.40;34.10;;;;;;631343;226;26568;-66
2022/08/03 12:38:30;;;;;;;1.85;1.70;;;33.60;34.70;;;;;;628221;227;26548;-65
2022/08/03 12:40:59;;;;;;;1.30;1.20;;;33.90;35.50;;;;;;626206;226;26541;-65
2022/08/03 12:43:27;;;;;;;1.58;1.48;;;33.90;35.50;;;;;;633950;226;26577;-65
2022/08/03 12:46:06;;;;;;;2.45;1.50;;;34.20;34.50;;;;;;625123;227;26736;-65
2022/08/03 12:48:33;;;;;;;2.47;1.48;;;34.30;33.70;;;;;;625663;230;26574;-65
2022/08/03 12:51:07;;;;;;;1.60;1.48;;;34.60;33.60;;;;;;636238;225;26786;-67
2022/08/03 12:53:34;;;;;;;1.50;1.40;;;34.90;33.10;;;;;;628210;227;26561;-66
2022/08/03 12:56:02;;;;;;;1.27;1.27;;;35.00;32.70;;;;;;629069;226;26541;-66
2022/08/03 12:58:32;;;;;;;1.55;1.20;;;35.10;32.70;;;;;;631874;226;26782;-66